首页
METAR-TAF:

METAR-TAF

机场 :

麦迪逊, 威斯康辛州, 美国

纬度: 43-08-26N, 经度: 089-20-43W, 海拔: 262米

当前天气观测

该预报发布于17分钟前的01:30 UTC
风速4节,风向南转西南
温度 -5°C
湿度 79%
气压 1017 hPa
能見度: 6.4公里
少量云层高于1600英尺
阴天层高于3100英尺
小雪

METAR: KMSN 140130Z 21004KT 4SM -SN FEW016 OVC031 M05/M08 A3002 RMK AO2 P0001 T10501078

时间: 19:47 (01:47 UTC)

预报

该预报发布于2小时和16分钟前的23:31 UTC
预报有效从14日的 00点(UTC)到 14日的 24点(UTC)
风速6节,风向南转西南
能見度: 9.7公里
多云层高于4000英尺
小雪
从 14日的 0200点(UTC)
风速5节,风向南转西南
能見度: 9.7公里
阴天层高于3000英尺
小雪
短暂存在
从 14日的 02点(UTC)到 14日的 04点(UTC)
能見度: 6.4公里
小雪
从 14日的 0600点(UTC)
风速3节,风向多变
能見度: 10公里
阴天层高于1900英尺
从 14日的 0800点(UTC)
风速3节,风向多变
能見度: 10公里
多云层高于1500英尺
从 14日的 1100点(UTC)
风速4节,风向多变
能見度: 10公里
少量云层高于1500英尺
多云层高于4500英尺

TAF: KMSN 132331Z 1400/1424 21006KT 6SM -SN BKN040 FM140200 21005KT 6SM -SN OVC030 TEMPO 1402/1404 4SM -SN FM140600 VRB03KT P6SM OVC019 FM140800 VRB03KT P6SM BKN015 FM141100 VRB04KT P6SM FEW015 BKN045

超过4000个机场的气象观测和天气预报(METAR&TAF报告)。

可查询的气象台以黄色和红色小点在地图上表示。

将鼠标移到小点上方,可查看气象台名称。

然后点击查看天气观测和预报。

如需切换地图:点击带黑十字的绿色按钮放大地图;点击带横线的绿色按钮缩小地图;或者点击绿色箭头查看邻近地区的地图。


METAR-TAF: